地図

経路データ

SID SEASON NUMBER BASIN SUBBASIN NAME ISO_TIME NATURE LAT LON WMO_WIND WMO_PRES WMO_AGENCY TRACK_TYPE DIST2LAND LANDFALL IFLAG USA_AGENCY USA_ATCF_ID USA_LAT USA_LON USA_RECORD USA_STATUS USA_WIND USA_PRES USA_SSHS USA_R34_NE USA_R34_SE USA_R34_SW USA_R34_NW USA_R50_NE USA_R50_SE USA_R50_SW USA_R50_NW USA_R64_NE USA_R64_SE USA_R64_SW USA_R64_NW USA_POCI USA_ROCI USA_RMW USA_EYE TOKYO_LAT TOKYO_LON TOKYO_GRADE TOKYO_WIND TOKYO_PRES TOKYO_R50_DIR TOKYO_R50_LONG TOKYO_R50_SHORT TOKYO_R30_DIR TOKYO_R30_LONG TOKYO_R30_SHORT TOKYO_LAND CMA_LAT CMA_LON CMA_CAT CMA_WIND CMA_PRES HKO_LAT HKO_LON HKO_CAT HKO_WIND HKO_PRES NEWDELHI_LAT NEWDELHI_LON NEWDELHI_GRADE NEWDELHI_WIND NEWDELHI_PRES NEWDELHI_CI NEWDELHI_DP NEWDELHI_POCI REUNION_LAT REUNION_LON REUNION_TYPE REUNION_WIND REUNION_PRES REUNION_TNUM REUNION_CI REUNION_RMW REUNION_R34_NE REUNION_R34_SE REUNION_R34_SW REUNION_R34_NW REUNION_R50_NE REUNION_R50_SE REUNION_R50_SW REUNION_R50_NW REUNION_R64_NE REUNION_R64_SE REUNION_R64_SW REUNION_R64_NW BOM_LAT BOM_LON BOM_TYPE BOM_WIND BOM_PRES BOM_TNUM BOM_CI BOM_RMW BOM_R34_NE BOM_R34_SE BOM_R34_SW BOM_R34_NW BOM_R50_NE BOM_R50_SE BOM_R50_SW BOM_R50_NW BOM_R64_NE BOM_R64_SE BOM_R64_SW BOM_R64_NW BOM_ROCI BOM_POCI BOM_EYE BOM_POS_METHOD BOM_PRES_METHOD NADI_LAT NADI_LON NADI_CAT NADI_WIND NADI_PRES WELLINGTON_LAT WELLINGTON_LON WELLINGTON_WIND WELLINGTON_PRES DS824_LAT DS824_LON DS824_STAGE DS824_WIND DS824_PRES TD9636_LAT TD9636_LON TD9636_STAGE TD9636_WIND TD9636_PRES TD9635_LAT TD9635_LON TD9635_WIND TD9635_PRES TD9635_ROCI NEUMANN_LAT NEUMANN_LON NEUMANN_CLASS NEUMANN_WIND NEUMANN_PRES MLC_LAT MLC_LON MLC_CLASS MLC_WIND MLC_PRES USA_GUST BOM_GUST BOM_GUST_PER REUNION_GUST REUNION_GUST_PER USA_SEAHGT USA_SEARAD_NE USA_SEARAD_SE USA_SEARAD_SW USA_SEARAD_NW STORM_SPEED STORM_DIR
1969281S07076 1970 99 SI MM BLANCHE 1969-10-07 12:00:00 TS -7.00000 76.0000 reunion main 1533 1505 _____O______O_ -1 -7.00000 76.0000 2 9.90000 -7.00000 76.0000 TC 25 14 309
1969281S07076 1970 99 SI MM BLANCHE 1969-10-07 15:00:00 TS -6.55994 75.4574 main 1509 1500 _____P______P_ -1 -6.55994 75.4574 2 -6.55994 75.4574 TC 27 19 297
1969281S07076 1970 99 SI MM BLANCHE 1969-10-07 18:00:00 TS -6.13333 74.2667 reunion main 1510 1510 O____O___OO_O_ jtwc_sh SH021970 -6.20000 73.2000 -1 -6.10000 74.8000 99 9.90000 -6.20000 73.2000 TC -6.20000 73.2000 1 -6.10000 74.8000 TC 30 21 288
1969281S07076 1970 99 SI MM BLANCHE 1969-10-07 21:00:00 TS -5.93361 73.4702 main 1532 1532 P____P___PP_P_ SH021970 -6.35008 72.8026 -1 -5.62012 73.9649 99 -6.35008 72.8026 TC -6.35464 72.8266 1 -5.62012 73.9649 TC 30 15 279
1969281S07076 1970 99 SI MM BLANCHE 1969-10-08 00:00:00 TS -5.88953 72.7351 reunion main 1578 1578 O____O___OP_O_ jtwc_sh SH021970 -6.50000 72.4000 -1 -5.20000 73.1000 99 9.90000 -6.50000 72.4000 TC -6.50734 72.4325 1 -5.20000 73.1000 TC 30 13 270
1969281S07076 1970 99 SI MM BLANCHE 1969-10-08 03:00:00 TS -5.93516 72.1514 main 1608 1608 P____P___PP_P_ SH021970 -6.64991 71.9799 -1 -4.85979 72.4000 99 -6.64991 71.9799 TC -6.65639 71.9971 1 -4.85979 72.4000 TC 32 12 266
1969281S07076 1970 99 SI MM BLANCHE 1969-10-08 06:00:00 TS -5.96000 71.5800 reunion main 1656 1656 O____O___OO_O_ jtwc_sh SH021970 -6.80000 71.5000 -1 -4.70000 71.7000 99 9.90000 -6.80000 71.5000 TC 25 -6.80000 71.5000 1 -4.70000 71.7000 TC 35 13 264
1969281S07076 1970 99 SI MM BLANCHE 1969-10-08 09:00:00 TS -6.07142 70.8594 main 1711 1711 P____P___PP_P_ SH021970 -6.95753 70.9150 -1 -4.75275 70.7677 99 -6.95753 70.9150 TC 25 -6.93655 70.9316 1 -4.75275 70.7677 TC 35 14 258
1969281S07076 1970 99 SI MM BLANCHE 1969-10-08 12:00:00 TS -6.25309 70.1855 reunion main 1777 1777 O____O___OP_O_ jtwc_sh SH021970 -7.10000 70.3000 -1 -5.00000 70.0000 2 9.90000 -7.10000 70.3000 TC 25 -7.06545 70.3276 1 -5.00000 70.0000 TC 35 12 250
1969281S07076 1970 99 SI MM BLANCHE 1969-10-08 15:00:00 TS -6.46823 69.7359 main 1829 1829 P____P___PP_P_ SH021970 -7.20750 69.7125 -1 -5.36978 69.7599 2 -7.20750 69.7125 TC 25 -7.18657 69.7347 1 -5.36978 69.7599 TC 37 9 240
1969281S07076 1970 99 SI MM BLANCHE 1969-10-08 18:00:00 TS -6.70000 69.4000 reunion main 1868 1868 O____O___OO_O_ jtwc_sh SH021970 -7.30000 69.2000 -1 -5.80000 69.7000 99 9.90000 -7.30000 69.2000 TC 25 -7.30000 69.2000 1 -5.80000 69.7000 TC 40 8 237
1969281S07076 1970 99 SI MM BLANCHE 1969-10-08 21:00:00 TS -6.90108 69.0634 main 1907 1884 P____P___PP_P_ SH021970 -7.39989 68.8200 -1 -6.15752 69.4500 99 -7.39989 68.8200 TC 30 -7.39058 68.7770 1 -6.15752 69.4500 TC 40 7 238
1969281S07076 1970 99 SI MM BLANCHE 1969-10-09 00:00:00 TS -7.09541 68.7635 reunion main 1884 1846 O____O___OP_O_ jtwc_sh SH021970 -7.50000 68.5000 -1 -6.50000 69.2000 99 9.90000 -7.50000 68.5000 TC 35 -7.47706 68.4173 1 -6.50000 69.2000 TC 40 7 236
1969281S07076 1970 99 SI MM BLANCHE 1969-10-09 03:00:00 TS -7.28599 68.4967 main 1846 1815 P____P___PP_P_ SH021970 -7.58499 68.1425 -1 -6.84246 69.0499 99 -7.58499 68.1425 TC 50 -7.57504 68.0989 1 -6.84246 69.0499 TC 42 7 232
1969281S07076 1970 99 SI MM BLANCHE 1969-10-09 06:00:00 TS -7.50000 68.2400 reunion main 1808 1768 O____O___OO_O_ jtwc_sh SH021970 -7.70000 67.8000 -1 -7.20000 68.9000 99 9.90000 -7.70000 67.8000 TC 65 -7.70000 67.8000 4 -7.20000 68.9000 TC 45 7 226
1969281S07076 1970 99 SI MM BLANCHE 1969-10-09 09:00:00 TS -7.77821 67.9814 main 1768 1730 P____P___PP_P_ SH021970 -7.88496 67.4925 -1 -7.61489 68.7099 99 -7.88496 67.4925 TC 65 -7.89135 67.5019 4 -7.61489 68.7099 TC 47 8 225
1969281S07076 1970 99 SI MM BLANCHE 1969-10-09 12:00:00 TS -8.06144 67.6830 reunion main 1721 1676 O____O___OP_O_ jtwc_sh SH021970 -8.10000 67.2000 -1 -8.00000 68.4000 3 9.90000 -8.10000 67.2000 TC 65 -8.10720 67.2151 4 -8.00000 68.4000 TC 50 9 232
1969281S07076 1970 99 SI MM BLANCHE 1969-10-09 15:00:00 TS -8.30192 67.3021 main 1676 1632 P____P___PP_P_ SH021970 -8.31496 66.9075 -1 -8.28010 67.8875 3 -8.31496 66.9075 TC 65 -8.31946 66.9207 4 -8.28010 67.8875 TC 50 9 241
1969281S07076 1970 99 SI MM BLANCHE 1969-10-09 18:00:00 TS -8.50000 66.8800 reunion main 1632 1588 O____O___OO_O_ jtwc_sh SH021970 -8.50000 66.6000 -1 -8.50000 67.3000 99 9.90000 -8.50000 66.6000 TC 65 -8.50000 66.6000 4 -8.50000 67.3000 TC 50 9 246
1969281S07076 1970 99 SI MM BLANCHE 1969-10-09 21:00:00 TS -8.66225 66.4812 main 1588 1554 P____P___PP_P_ SH021970 -8.62244 66.2725 -1 -8.72987 66.8000 99 -8.62244 66.2725 TC 65 -8.60661 66.2609 4 -8.72987 66.8000 TC 52 9 251
1969281S07076 1970 99 SI MM BLANCHE 1969-10-10 00:00:00 TS -8.77591 66.0579 reunion main 1554 1523 O____O___OP_O_ jtwc_sh SH021970 -8.70000 65.9000 -1 -8.90000 66.3000 99 9.90000 -8.70000 65.9000 TC 65 -8.67955 65.8896 4 -8.90000 66.3000 TC 55 9 259
1969281S07076 1970 99 SI MM BLANCHE 1969-10-10 03:00:00 TS -8.83948 65.5956 main 1523 1484 P____P___PP_P_ SH021970 -8.74991 65.4874 -1 -8.97992 65.7649 99 -8.74991 65.4874 TC 65 -8.73774 65.4734 4 -8.97992 65.7649 TC 57 10 264
1969281S07076 1970 99 SI MM BLANCHE 1969-10-10 06:00:00 TS -8.88000 65.0800 reunion main 1484 1451 O____O___OO_O_ jtwc_sh SH021970 -8.80000 65.0000 -1 -9.00000 65.2000 99 9.90000 -8.80000 65.0000 TC 65 -8.80000 65.0000 4 -9.00000 65.2000 TC 60 11 266
1969281S07076 1970 99 SI MM BLANCHE 1969-10-10 09:00:00 TS -8.92329 64.5099 main 1451 1409 P____P___PP_P_ SH021970 -8.89250 64.4225 -1 -8.97732 64.6298 99 -8.89250 64.4225 TC 65 -8.87681 64.4452 4 -8.97732 64.6298 TC 62 12 265
1969281S07076 1970 99 SI MM BLANCHE 1969-10-10 12:00:00 TS -8.99257 63.8874 reunion main 1409 1370 O____O___OP_O_ jtwc_sh SH021970 -9.00000 63.8000 -1 -9.00000 64.0000 4 9.90000 -9.00000 63.8000 TC 65 -8.96284 63.8372 4 -9.00000 64.0000 TC 65 13 262
1969281S07076 1970 99 SI MM BLANCHE 1969-10-10 15:00:00 TS -9.11246 63.2251 main 1365 1318 P____P___PP_P_ SH021970 -9.09247 63.1849 -1 -9.15498 63.2725 4 -9.09247 63.1849 TC 65 -9.06740 63.2107 4 -9.15498 63.2725 TC 67 13 258
1969281S07076 1970 99 SI MM BLANCHE 1969-10-10 18:00:00 TS -9.28000 62.5600 reunion main 1318 1273 O____O___OO_O_ jtwc_sh SH021970 -9.20000 62.6000 -1 -9.40000 62.5000 99 9.90000 -9.20000 62.6000 TC 65 -9.20000 62.6000 4 -9.40000 62.5000 TC 70 13 254
1969281S07076 1970 99 SI MM BLANCHE 1969-10-10 21:00:00 TS -9.48613 61.9467 main 1269 1230 P____P___PP_P_ SH021970 -9.32733 62.0924 -1 -9.71497 61.7277 99 -9.32733 62.0924 TC 65 -9.34602 62.0934 4 -9.71497 61.7277 TC 70 13 250
1969281S07076 1970 99 SI MM BLANCHE 1969-10-11 00:00:00 TS -9.70474 61.3603 reunion main 1230 1189 O____O___OP_O_ jtwc_sh SH021970 -9.50000 61.6000 -1 -10.0000 61.0000 99 9.90000 -9.50000 61.6000 TC 65 -9.52372 61.6014 4 -10.0000 61.0000 TC 70 12 251
1969281S07076 1970 99 SI MM BLANCHE 1969-10-11 03:00:00 TS -9.87272 60.8055 main 1189 1153 P____P___PP_P_ SH021970 -9.71229 61.0873 -1 -10.0997 60.3846 99 -9.71229 61.0873 TC 65 -9.73961 61.0838 4 -10.0997 60.3846 TC 70 12 252
1969281S07076 1970 99 SI MM BLANCHE 1969-10-11 06:00:00 TS -10.0800 60.2200 reunion main 1151 1096 O____O___OO_O_ jtwc_sh SH021970 -10.0000 60.5000 -1 -10.2000 59.8000 99 9.90000 -10.0000 60.5000 TC 65 -10.0000 60.5000 4 -10.2000 59.8000 TC 70 14 246
1969281S07076 1970 99 SI MM BLANCHE 1969-10-11 09:00:00 TS -10.4307 59.5235 main 1085 999 P____P___PP_P_ SH021970 -10.3925 59.7876 -1 -10.5000 59.1503 99 -10.3925 59.7876 TC 65 -10.3688 59.7417 4 -10.5000 59.1503 TC 67 16 243
1969281S07076 1970 99 SI MM BLANCHE 1969-10-11 12:00:00 TS -10.7938 58.7845 reunion main 999 920 O____O___OP_O_ jtwc_sh SH021970 -10.8000 59.0000 -1 -10.8000 58.5000 4 9.90000 -10.8000 59.0000 TC 65 -10.7691 58.9224 4 -10.8000 58.5000 TC 65 16 247
1969281S07076 1970 99 SI MM BLANCHE 1969-10-11 15:00:00 TS -11.0510 58.0363 main 906 840 P____P___PP_P_ SH021970 -11.1602 58.1477 -1 -10.8999 57.8846 4 -11.1602 58.1477 TC 65 -11.1346 58.1166 4 -10.8999 57.8846 TC 62 15 252
1969281S07076 1970 99 SI MM BLANCHE 1969-10-11 18:00:00 TS -11.2400 57.3600 reunion main 840 782 O____O___OO_O_ jtwc_sh SH021970 -11.4000 57.4000 -1 -11.0000 57.3000 99 9.90000 -11.4000 57.4000 TC 65 -11.4000 57.4000 4 -11.0000 57.3000 TC 60 12 253
1969281S07076 1970 99 SI MM BLANCHE 1969-10-11 21:00:00 TS -11.3948 56.8609 main 782 726 P____P___PP_P_ SH021970 -11.4521 56.9472 -1 -11.2923 56.7502 99 -11.4521 56.9472 TC 50 -11.4853 56.9099 4 -11.2923 56.7502 TC 60 10 255
1969281S07076 1970 99 SI MM BLANCHE 1969-10-12 00:00:00 TS -11.4936 56.4223 reunion main 726 684 O____O___OP_O_ jtwc_sh SH021970 -11.4000 56.6000 -1 -11.6000 56.2000 99 9.90000 -11.4000 56.6000 TC 35 -11.4679 56.5113 4 -11.6000 56.2000 TC 60 9 261
1969281S07076 1970 99 SI MM BLANCHE 1969-10-12 03:00:00 TS -11.5453 55.9384 main 673 631 P____P___PP_P_ SH021970 -11.3573 56.1875 -1 -11.8100 55.5926 99 -11.3573 56.1875 TC 35 -11.3917 56.1321 4 -11.8100 55.5926 TC 57 10 267
1969281S07076 1970 99 SI MM BLANCHE 1969-10-12 06:00:00 TS -11.5400 55.4200 reunion main 621 569 O____O___OO_O_ jtwc_sh SH021970 -11.3000 55.7000 -1 -11.9000 55.0000 99 9.90000 -11.3000 55.7000 TC 35 -11.3000 55.7000 2 -11.9000 55.0000 TC 55 11 272
1969281S07076 1970 99 SI MM BLANCHE 1969-10-12 09:00:00 TS -11.5057 54.8520 main 569 510 P____P___PP_P_ SH021970 -11.2500 55.0800 -1 -11.8673 54.4925 99 -11.2500 55.0800 TC 35 -11.2939 55.1151 2 -11.8673 54.4925 TC 52 12 276
1969281S07076 1970 99 SI MM BLANCHE 1969-10-12 12:00:00 TS -11.4150 54.2536 reunion main 510 455 O____O___OP_O_ jtwc_sh SH021970 -11.2000 54.4000 -1 -11.7000 54.0000 3 9.90000 -11.2000 54.4000 TC 35 -11.2752 54.4682 2 -11.7000 54.0000 TC 50 12 281
1969281S07076 1970 99 SI MM BLANCHE 1969-10-12 15:00:00 TS -11.2696 53.6464 main 445 408 P____P___PP_P_ SH021970 -11.1724 53.7502 -1 -11.3924 53.4722 3 -11.1724 53.7502 TC 35 -11.2188 53.7871 2 -11.3924 53.4722 TC 50 13 285
1969281S07076 1970 99 SI MM BLANCHE 1969-10-12 18:00:00 TS -11.1000 53.0200 reunion main 398 352 O____O___OO_O_ jtwc_sh SH021970 -11.1000 53.1000 -1 -11.1000 52.9000 99 9.90000 -11.1000 53.1000 TC 35 -11.1000 53.1000 2 -11.1000 52.9000 TC 50 13 283
1969281S07076 1970 99 SI MM BLANCHE 1969-10-12 21:00:00 TS -10.9751 52.3849 main 352 305 P____P___PP_P_ SH021970 -10.9449 52.4501 -1 -11.0424 52.2729 99 -10.9449 52.4501 TC 35 -10.9010 52.4783 2 -11.0424 52.2729 TC 47 13 283
1969281S07076 1970 99 SI MM BLANCHE 1969-10-13 00:00:00 TS -10.8077 51.7305 reunion main 295 257 O____O___OP_O_ jtwc_sh SH021970 -10.7000 51.8000 -1 -11.0000 51.6000 99 9.90000 -10.7000 51.8000 TC 35 -10.6387 51.8524 2 -11.0000 51.6000 TC 45 14 289
1969281S07076 1970 99 SI MM BLANCHE 1969-10-13 03:00:00 TS -10.5273 51.0660 main 265 240 P____P___PP_P_ SH021970 -10.3722 51.1726 -1 -10.7800 50.8924 99 -10.3722 51.1726 TC 35 -10.3321 51.2004 2 -10.7800 50.8924 TC 45 15 295
1969281S07076 1970 99 SI MM BLANCHE 1969-10-13 06:00:00 TS -10.2000 50.3800 reunion main 244 239 O____O___OO_O_ jtwc_sh SH021970 -10.0000 50.5000 -1 -10.5000 50.2000 99 9.90000 -10.0000 50.5000 TC 35 -10.0000 50.5000 2 -10.5000 50.2000 TC 45 15 295
1969281S07076 1970 99 SI MM BLANCHE 1969-10-13 09:00:00 TS -9.88193 49.6719 main 250 248 P____P___PP_P_ SH021970 -9.64991 49.7301 -1 -10.2273 49.5850 99 -9.64991 49.7301 TC 35 -9.65521 49.7291 2 -10.2273 49.5850 TC 42 16 294
1969281S07076 1970 99 SI MM BLANCHE 1969-10-13 12:00:00 TS -9.57846 48.9419 reunion main 281 281 O____O___OP_O_ jtwc_sh SH021970 -9.30000 48.9000 -1 -10.0000 49.0000 3 9.90000 -9.30000 48.9000 TC 35 -9.29231 48.9095 2 -10.0000 49.0000 TC 40 16 291
1969281S07076 1970 99 SI MM BLANCHE 1969-10-13 15:00:00 TS -9.32651 48.2012 main 332 332 P____P___PP_P_ SH021970 -8.94236 48.0576 -1 -9.90731 48.4153 3 -8.94236 48.0576 TC 35 -8.93322 48.0602 2 -9.90731 48.4153 TC 40 16 289
1969281S07076 1970 99 SI MM BLANCHE 1969-10-13 18:00:00 TS -9.08000 47.4400 reunion main 389 389 O____O___OO_O_ jtwc_sh SH021970 -8.60000 47.2000 -1 -9.80000 47.8000 99 9.90000 -8.60000 47.2000 TC 35 -8.60000 47.2000 2 -9.80000 47.8000 TC 40 16 290
1969281S07076 1970 99 SI MM BLANCHE 1969-10-13 21:00:00 TS -8.77123 46.6388 main 466 466 P____P___PP_P_ SH021970 -8.27732 46.3501 -1 -9.49995 47.1147 99 -8.27732 46.3501 TC 30 -8.30161 46.2642 2 -9.49995 47.1147 TC 40 17 290
1969281S07076 1970 99 SI MM BLANCHE 1969-10-14 00:00:00 TS -8.48671 45.8271 reunion main 548 548 O____O___OP_O_ jtwc_sh SH021970 -8.00000 45.5000 -1 -9.20000 46.4000 99 9.90000 -8.00000 45.5000 TC 25 -8.03354 45.3354 2 -9.20000 46.4000 TC 40 17 286
1969281S07076 1970 99 SI MM BLANCHE 1969-10-14 03:00:00 TS -8.30468 45.0200 main 552 493 P____P___PP_P_ SH021970 -7.77760 44.5976 -1 -9.08482 45.7078 99 -7.77760 44.5976 TC 25 -7.79855 44.4889 2 -9.08482 45.7078 TC 37 16 282
1969281S07076 1970 99 SI MM BLANCHE 1969-10-14 06:00:00 TS -8.16000 44.2800 reunion main 493 455 O____O___OO_O_ jtwc_sh SH021970 -7.60000 43.8000 -1 -9.00000 45.0000 99 9.90000 -7.60000 43.8000 TC 25 -7.60000 43.8000 1 -9.00000 45.0000 TC 35 14 283
1969281S07076 1970 99 SI MM BLANCHE 1969-10-14 09:00:00 TS -7.99081 43.6334 main 447 407 P____P___PP_P_ SH021970 -7.43487 43.1801 -1 -8.82248 44.2425 99 -7.43487 43.1801 TC 25 -7.43935 43.3217 1 -8.82248 44.2425 TC 35 11 283
1969281S07076 1970 99 SI MM BLANCHE 1969-10-14 12:00:00 TS -7.91338 43.1678 reunion main 407 364 O____O___OP_O_ jtwc_sh SH021970 -7.30000 42.8000 -1 -8.60000 43.5000 3 9.90000 -7.30000 42.8000 TC 25 -7.30917 43.0177 1 -8.60000 43.5000 TC 35 9 279
1969281S07076 1970 99 SI MM BLANCHE 1969-10-14 15:00:00 TS -7.85056 42.7850 main 364 318 P____P___PP_P_ SH021970 -7.19252 42.6775 -1 -8.34235 42.8275 3 -7.19252 42.6775 TC 25 -7.19946 42.8298 1 -8.34235 42.8275 TC 35 8 276
1969281S07076 1970 99 SI MM BLANCHE 1969-10-14 18:00:00 TS -7.82727 42.3364 reunion main 308 242 O____O___OO_O_ jtwc_sh SH021970 -7.10000 42.7000 -1 -8.10000 42.2000 99 9.90000 -7.10000 42.7000 TC 25 -7.10000 42.7000 7 -8.10000 42.2000 TC 35 12 265
1969281S07076 1970 99 SI MM BLANCHE 1969-10-14 21:00:00 TS -7.95735 41.6002 main 242 173 _____P______P_ SH021970 -1 -7.95735 41.6002 99 TC 7 -7.95735 41.6002 TC 35 13 271
1969281S07076 1970 99 SI MM BLANCHE 1969-10-15 00:00:00 TS -7.80000 41.0000 reunion main 173 104 _____O______O_ -1 -7.80000 41.0000 99 9.90000 7 -7.80000 41.0000 TC 35 13 289
1969281S07076 1970 99 SI MM BLANCHE 1969-10-15 03:00:00 TS -7.53524 40.3622 main 99 15 _____P______P_ -1 -7.53524 40.3622 99 7 -7.53524 40.3622 TC 32 14 295
1969281S07076 1970 99 SI MM BLANCHE 1969-10-15 06:00:00 MX -7.20000 39.7000 reunion main 15 _____O______O_ -1 -7.20000 39.7000 6 9.90000 -7.20000 39.7000 EX 30 15 297

IBTrACS Databaseについて

本データベースは、米国NOAAが公開する1842年以降の世界の熱帯低気圧のベストトラックデータアーカイブInternational Best Track Archive for Climate Stewardship (IBTrACS)を、ウェブで閲覧しやすい形式に変換したものです。

最終更新日:2021-10-19